sensor_id;sensor_type;location;lat;lon;timestamp;pressure;altitude;pressure_sealevel;temperature;humidity
57904;BME280;43720;47.462;19.030;2023-02-14T05:09:28;102023.94;;;0.72;100.00
57904;BME280;43720;47.462;19.030;2023-02-14T05:12:31;102023.75;;;0.81;100.00
57904;BME280;43720;47.462;19.030;2023-02-14T05:15:33;102031.38;;;0.80;100.00
57904;BME280;43720;47.462;19.030;2023-02-14T05:18:38;102035.62;;;0.79;100.00
57904;BME280;43720;47.462;19.030;2023-02-14T05:21:40;102032.25;;;0.80;100.00
57904;BME280;43720;47.462;19.030;2023-02-14T05:24:43;102024.44;;;0.79;100.00
57904;BME280;43720;47.462;19.030;2023-02-14T05:27:45;102031.47;;;0.81;100.00
57904;BME280;43720;47.462;19.030;2023-02-14T05:30:49;102032.94;;;1.00;100.00
57904;BME280;43720;47.462;19.030;2023-02-14T05:33:51;102031.25;;;1.10;100.00
57904;BME280;43720;47.462;19.030;2023-02-14T05:36:54;102029.25;;;1.18;100.00
57904;BME280;43720;47.462;19.030;2023-02-14T05:39:56;102030.66;;;1.25;99.93
57904;BME280;43720;47.462;19.030;2023-02-14T05:42:58;102034.47;;;1.30;100.00
57904;BME280;43720;47.462;19.030;2023-02-14T05:46:01;102031.06;;;1.41;99.28
57904;BME280;43720;47.462;19.030;2023-02-14T05:49:03;102033.09;;;1.45;99.08
57904;BME280;43720;47.462;19.030;2023-02-14T05:52:05;102035.22;;;1.51;100.00
57904;BME280;43720;47.462;19.030;2023-02-14T05:55:08;102040.81;;;1.67;100.00
57904;BME280;43720;47.462;19.030;2023-02-14T05:58:11;102046.19;;;1.70;100.00
57904;BME280;43720;47.462;19.030;2023-02-14T06:01:13;102039.97;;;1.78;98.77
57904;BME280;43720;47.462;19.030;2023-02-14T06:04:16;102045.88;;;1.77;98.28
57904;BME280;43720;47.462;19.030;2023-02-14T06:07:18;102039.22;;;1.69;98.82
57904;BME280;43720;47.462;19.030;2023-02-14T06:10:22;102043.25;;;1.65;99.67
57904;BME280;43720;47.462;19.030;2023-02-14T06:13:24;102054.19;;;1.51;100.00
57904;BME280;43720;47.462;19.030;2023-02-14T06:16:27;102057.19;;;1.45;100.00
57904;BME280;43720;47.462;19.030;2023-02-14T06:19:29;102054.25;;;1.41;100.00
57904;BME280;43720;47.462;19.030;2023-02-14T06:22:31;102063.97;;;1.33;100.00
57904;BME280;43720;47.462;19.030;2023-02-14T06:25:34;102064.25;;;1.26;100.00
57904;BME280;43720;47.462;19.030;2023-02-14T06:28:38;102070.66;;;1.31;100.00
57904;BME280;43720;47.462;19.030;2023-02-14T06:31:42;102076.06;;;1.34;100.00
57904;BME280;43720;47.462;19.030;2023-02-14T06:34:45;102078.28;;;1.30;100.00
57904;BME280;43720;47.462;19.030;2023-02-14T06:37:47;102082.59;;;1.41;100.00
57904;BME280;43720;47.462;19.030;2023-02-14T06:40:49;102084.03;;;1.37;100.00
57904;BME280;43720;47.462;19.030;2023-02-14T06:43:52;102088.28;;;1.37;100.00
57904;BME280;43720;47.462;19.030;2023-02-14T06:46:54;102093.38;;;1.47;100.00
57904;BME280;43720;47.462;19.030;2023-02-14T06:49:56;102094.22;;;1.58;100.00
57904;BME280;43720;47.462;19.030;2023-02-14T06:53:01;102098.66;;;1.70;100.00
57904;BME280;43720;47.462;19.030;2023-02-14T06:56:03;102096.44;;;1.75;100.00
57904;BME280;43720;47.462;19.030;2023-02-14T06:59:06;102102.88;;;1.92;99.93
57904;BME280;43720;47.462;19.030;2023-02-14T07:02:11;102109.22;;;2.07;98.90
57904;BME280;43720;47.462;19.030;2023-02-14T07:05:13;102108.44;;;2.08;99.01
57904;BME280;43720;47.462;19.030;2023-02-14T07:08:17;102104.19;;;2.20;98.32
57904;BME280;43720;47.462;19.030;2023-02-14T07:11:20;102109.84;;;2.38;98.67
57904;BME280;43720;47.462;19.030;2023-02-14T07:14:22;102105.84;;;2.54;97.94
57904;BME280;43720;47.462;19.030;2023-02-14T07:17:24;102100.69;;;2.65;98.10
57904;BME280;43720;47.462;19.030;2023-02-14T07:20:27;102097.87;;;2.86;97.63
57904;BME280;43720;47.462;19.030;2023-02-14T07:23:29;102097.63;;;3.30;96.76
57904;BME280;43720;47.462;19.030;2023-02-14T07:26:31;102100.50;;;3.71;94.67
57904;BME280;43720;47.462;19.030;2023-02-14T07:29:34;102096.84;;;3.92;92.87
57904;BME280;43720;47.462;19.030;2023-02-14T07:32:37;102099.59;;;4.07;91.18
57904;BME280;43720;47.462;19.030;2023-02-14T07:35:40;102106.47;;;4.20;90.47
57904;BME280;43720;47.462;19.030;2023-02-14T07:38:43;102107.72;;;4.38;89.61
57904;BME280;43720;47.462;19.030;2023-02-14T07:41:46;102111.13;;;4.51;88.36
57904;BME280;43720;47.462;19.030;2023-02-14T07:44:50;102108.94;;;4.57;87.25
57904;BME280;43720;47.462;19.030;2023-02-14T07:47:53;102117.22;;;4.64;86.55
57904;BME280;43720;47.462;19.030;2023-02-14T07:50:57;102125.41;;;4.97;84.84
57904;BME280;43720;47.462;19.030;2023-02-14T07:54:00;102118.94;;;5.17;83.17
57904;BME280;43720;47.462;19.030;2023-02-14T07:57:02;102126.69;;;5.30;82.36
57904;BME280;43720;47.462;19.030;2023-02-14T08:00:06;102130.06;;;5.43;82.85
57904;BME280;43720;47.462;19.030;2023-02-14T08:03:14;102127.41;;;5.28;83.66
57904;BME280;43720;47.462;19.030;2023-02-14T08:06:18;102130.69;;;5.25;83.56
57904;BME280;43720;47.462;19.030;2023-02-14T08:09:20;102119.62;;;5.14;83.49
57904;BME280;43720;47.462;19.030;2023-02-14T08:12:26;102118.22;;;5.06;85.55
57904;BME280;43720;47.462;19.030;2023-02-14T08:15:47;102127.31;;;5.00;85.69
57904;BME280;43720;47.462;19.030;2023-02-14T08:19:09;102118.94;;;5.04;85.76
57904;BME280;43720;47.462;19.030;2023-02-14T08:22:11;102117.03;;;5.01;85.56
57904;BME280;43720;47.462;19.030;2023-02-14T08:25:13;102127.31;;;5.00;86.17
57904;BME280;43720;47.462;19.030;2023-02-14T08:28:16;102116.03;;;4.99;86.42
57904;BME280;43720;47.462;19.030;2023-02-14T08:31:29;102118.13;;;5.18;85.43
57904;BME280;43720;47.462;19.030;2023-02-14T08:34:36;102120.28;;;5.52;83.34
57904;BME280;43720;47.462;19.030;2023-02-14T08:37:39;102121.16;;;5.66;81.77
57904;BME280;43720;47.462;19.030;2023-02-14T08:40:42;102116.44;;;5.73;80.84
57904;BME280;43720;47.462;19.030;2023-02-14T08:43:44;102120.00;;;5.75;80.65
57904;BME280;43720;47.462;19.030;2023-02-14T08:46:46;102121.09;;;5.79;80.49
57904;BME280;43720;47.462;19.030;2023-02-14T08:49:49;102122.97;;;5.95;80.77
57904;BME280;43720;47.462;19.030;2023-02-14T08:52:51;102117.38;;;6.17;79.38
57904;BME280;43720;47.462;19.030;2023-02-14T08:55:54;102122.91;;;6.23;79.09
57904;BME280;43720;47.462;19.030;2023-02-14T08:58:56;102123.56;;;6.33;77.35
57904;BME280;43720;47.462;19.030;2023-02-14T09:01:58;102121.25;;;6.38;78.04
57904;BME280;43720;47.462;19.030;2023-02-14T09:05:00;102131.59;;;6.23;78.51
57904;BME280;43720;47.462;19.030;2023-02-14T09:08:03;102122.69;;;6.33;79.21
57904;BME280;43720;47.462;19.030;2023-02-14T09:11:12;102123.78;;;6.51;77.71
57904;BME280;43720;47.462;19.030;2023-02-14T09:14:15;102122.25;;;6.55;76.63
57904;BME280;43720;47.462;19.030;2023-02-14T09:17:18;102113.81;;;6.59;75.71
57904;BME280;43720;47.462;19.030;2023-02-14T09:20:20;102115.63;;;6.60;74.85
57904;BME280;43720;47.462;19.030;2023-02-14T09:23:23;102112.19;;;6.76;73.92
57904;BME280;43720;47.462;19.030;2023-02-14T09:26:25;102120.25;;;6.95;72.53
57904;BME280;43720;47.462;19.030;2023-02-14T09:29:29;102113.81;;;7.20;71.32
57904;BME280;43720;47.462;19.030;2023-02-14T09:32:32;102110.44;;;7.21;70.79
57904;BME280;43720;47.462;19.030;2023-02-14T09:35:35;102113.50;;;7.45;70.06
57904;BME280;43720;47.462;19.030;2023-02-14T09:38:55;102124.06;;;7.48;70.97
57904;BME280;43720;47.462;19.030;2023-02-14T09:45:26;102119.97;;;7.37;68.97
57904;BME280;43720;47.462;19.030;2023-02-14T09:48:37;102125.44;;;7.41;68.98
57904;BME280;43720;47.462;19.030;2023-02-14T09:51:46;102124.31;;;7.52;68.16
57904;BME280;43720;47.462;19.030;2023-02-14T09:54:53;102122.56;;;7.37;67.73
57904;BME280;43720;47.462;19.030;2023-02-14T09:58:11;102122.13;;;7.44;67.81
57904;BME280;43720;47.462;19.030;2023-02-14T10:01:24;102128.53;;;7.50;67.55
57904;BME280;43720;47.462;19.030;2023-02-14T10:07:46;102115.47;;;7.65;67.59
57904;BME280;43720;47.462;19.030;2023-02-14T10:11:04;102114.63;;;7.66;67.59
57904;BME280;43720;47.462;19.030;2023-02-14T10:14:14;102119.53;;;7.76;66.49
57904;BME280;43720;47.462;19.030;2023-02-14T10:17:41;102112.06;;;7.82;65.78
57904;BME280;43720;47.462;19.030;2023-02-14T10:20:52;102112.78;;;7.80;65.59
57904;BME280;43720;47.462;19.030;2023-02-14T10:27:37;102107.50;;;7.78;65.60
57904;BME280;43720;47.462;19.030;2023-02-14T10:30:57;102103.03;;;7.92;65.57
57904;BME280;43720;47.462;19.030;2023-02-14T10:34:21;102100.41;;;8.08;64.94
57904;BME280;43720;47.462;19.030;2023-02-14T10:41:12;102091.37;;;8.18;63.33
57904;BME280;43720;47.462;19.030;2023-02-14T10:51:25;102093.31;;;8.39;62.50
57904;BME280;43720;47.462;19.030;2023-02-14T10:54:41;102082.53;;;8.67;62.35
57904;BME280;43720;47.462;19.030;2023-02-14T10:57:49;102076.63;;;8.87;62.83
57904;BME280;43720;47.462;19.030;2023-02-14T11:00:54;102080.81;;;8.67;60.38
57904;BME280;43720;47.462;19.030;2023-02-14T11:03:59;102073.00;;;8.67;60.92
57904;BME280;43720;47.462;19.030;2023-02-14T11:07:12;102073.91;;;8.86;60.54
57904;BME280;43720;47.462;19.030;2023-02-14T11:10:16;102070.69;;;9.09;59.94
57904;BME280;43720;47.462;19.030;2023-02-14T11:13:32;102070.91;;;9.14;59.06
57904;BME280;43720;47.462;19.030;2023-02-14T11:16:36;102066.88;;;9.20;59.01
57904;BME280;43720;47.462;19.030;2023-02-14T11:19:38;102073.19;;;9.06;58.75
57904;BME280;43720;47.462;19.030;2023-02-14T11:22:41;102061.59;;;9.19;58.26
57904;BME280;43720;47.462;19.030;2023-02-14T11:25:49;102065.47;;;9.27;58.23
57904;BME280;43720;47.462;19.030;2023-02-14T11:28:59;102064.44;;;9.23;58.22
57904;BME280;43720;47.462;19.030;2023-02-14T11:32:08;102063.34;;;9.00;59.06
57904;BME280;43720;47.462;19.030;2023-02-14T11:35:19;102054.38;;;9.13;58.41
57904;BME280;43720;47.462;19.030;2023-02-14T11:38:32;102069.81;;;9.09;58.59
57904;BME280;43720;47.462;19.030;2023-02-14T11:42:08;102069.44;;;9.01;60.32
57904;BME280;43720;47.462;19.030;2023-02-14T11:45:36;102061.97;;;9.09;58.87
57904;BME280;43720;47.462;19.030;2023-02-14T11:49:03;102055.97;;;9.29;59.94
57904;BME280;43720;47.462;19.030;2023-02-14T11:52:13;102059.25;;;9.25;57.34
57904;BME280;43720;47.462;19.030;2023-02-14T11:55:26;102057.91;;;9.33;58.20
57904;BME280;43720;47.462;19.030;2023-02-14T11:58:36;102051.13;;;9.56;57.18
57904;BME280;43720;47.462;19.030;2023-02-14T12:01:40;102051.06;;;9.74;55.53
57904;BME280;43720;47.462;19.030;2023-02-14T12:04:48;102052.31;;;9.82;54.43
57904;BME280;43720;47.462;19.030;2023-02-14T12:07:59;102054.91;;;9.82;55.09
57904;BME280;43720;47.462;19.030;2023-02-14T12:11:18;102054.72;;;9.58;54.89
57904;BME280;43720;47.462;19.030;2023-02-14T12:14:22;102048.94;;;9.46;55.20
57904;BME280;43720;47.462;19.030;2023-02-14T12:17:34;102045.44;;;9.65;54.86
57904;BME280;43720;47.462;19.030;2023-02-14T12:20:43;102043.19;;;10.32;53.97
57904;BME280;43720;47.462;19.030;2023-02-14T12:31:13;102040.78;;;9.77;54.24
57904;BME280;43720;47.462;19.030;2023-02-14T12:34:16;102033.47;;;9.70;54.86
57904;BME280;43720;47.462;19.030;2023-02-14T12:38:02;102030.66;;;9.65;54.54
57904;BME280;43720;47.462;19.030;2023-02-14T12:41:21;102032.75;;;9.72;54.92
57904;BME280;43720;47.462;19.030;2023-02-14T12:46:03;102017.53;;;9.64;55.09
57904;BME280;43720;47.462;19.030;2023-02-14T12:52:55;102013.09;;;9.61;55.93
57904;BME280;43720;47.462;19.030;2023-02-14T12:56:31;102010.19;;;9.74;55.22
57904;BME280;43720;47.462;19.030;2023-02-14T13:13:17;101994.66;;;9.98;54.46
57904;BME280;43720;47.462;19.030;2023-02-14T13:16:31;101998.34;;;9.83;53.78
57904;BME280;43720;47.462;19.030;2023-02-14T13:22:55;101998.78;;;9.72;53.74
57904;BME280;43720;47.462;19.030;2023-02-14T13:26:19;101985.84;;;9.75;53.73
57904;BME280;43720;47.462;19.030;2023-02-14T13:29:26;101997.25;;;9.77;54.72
57904;BME280;43720;47.462;19.030;2023-02-14T13:32:36;101993.44;;;9.90;54.41
57904;BME280;43720;47.462;19.030;2023-02-14T13:35:40;102000.22;;;9.85;55.19
57904;BME280;43720;47.462;19.030;2023-02-14T13:38:54;101998.19;;;9.79;55.12
57904;BME280;43720;47.462;19.030;2023-02-14T13:41:58;101994.22;;;9.88;55.30
57904;BME280;43720;47.462;19.030;2023-02-14T13:45:00;101990.13;;;9.94;54.41
57904;BME280;43720;47.462;19.030;2023-02-14T13:51:09;101992.69;;;9.72;54.96
57904;BME280;43720;47.462;19.030;2023-02-14T13:54:25;101992.09;;;9.79;54.90
57904;BME280;43720;47.462;19.030;2023-02-14T13:57:36;101985.31;;;9.63;54.84
57904;BME280;43720;47.462;19.030;2023-02-14T14:00:41;101992.09;;;9.60;54.64
57904;BME280;43720;47.462;19.030;2023-02-14T14:03:57;101989.16;;;9.52;54.85
57904;BME280;43720;47.462;19.030;2023-02-14T14:10:10;101987.66;;;9.76;55.66
57904;BME280;43720;47.462;19.030;2023-02-14T14:16:57;101997.00;;;9.52;55.73
57904;BME280;43720;47.462;19.030;2023-02-14T14:20:02;101995.50;;;9.57;55.73
57904;BME280;43720;47.462;19.030;2023-02-14T14:23:28;101992.06;;;9.58;55.78
57904;BME280;43720;47.462;19.030;2023-02-14T14:26:36;101993.56;;;9.53;55.73
57904;BME280;43720;47.462;19.030;2023-02-14T14:29:48;101992.09;;;9.40;56.33
57904;BME280;43720;47.462;19.030;2023-02-14T14:32:51;101993.69;;;9.37;56.02
57904;BME280;43720;47.462;19.030;2023-02-14T14:36:04;101994.66;;;9.39;56.23
57904;BME280;43720;47.462;19.030;2023-02-14T14:39:09;101988.34;;;9.34;56.72
57904;BME280;43720;47.462;19.030;2023-02-14T14:42:13;101990.19;;;9.36;56.84
57904;BME280;43720;47.462;19.030;2023-02-14T14:45:27;101985.13;;;9.39;57.28
57904;BME280;43720;47.462;19.030;2023-02-14T14:48:34;101988.12;;;9.29;56.89
57904;BME280;43720;47.462;19.030;2023-02-14T14:51:38;101977.09;;;9.35;56.76
57904;BME280;43720;47.462;19.030;2023-02-14T14:54:42;101987.38;;;9.31;56.94
57904;BME280;43720;47.462;19.030;2023-02-14T14:57:52;101979.69;;;9.15;57.13
57904;BME280;43720;47.462;19.030;2023-02-14T15:00:55;101984.34;;;9.03;58.13
57904;BME280;43720;47.462;19.030;2023-02-14T15:04:28;101976.88;;;9.11;57.93
57904;BME280;43720;47.462;19.030;2023-02-14T15:07:33;101981.72;;;9.03;58.30
57904;BME280;43720;47.462;19.030;2023-02-14T15:10:35;101983.88;;;9.12;57.97
57904;BME280;43720;47.462;19.030;2023-02-14T15:13:49;101989.34;;;8.98;58.51
57904;BME280;43720;47.462;19.030;2023-02-14T15:16:58;101985.94;;;8.81;59.52
57904;BME280;43720;47.462;19.030;2023-02-14T15:20:06;101981.69;;;8.84;59.04
57904;BME280;43720;47.462;19.030;2023-02-14T15:23:16;101985.53;;;8.92;58.77
57904;BME280;43720;47.462;19.030;2023-02-14T15:26:29;101984.88;;;8.96;58.80
57904;BME280;43720;47.462;19.030;2023-02-14T15:29:32;101987.34;;;8.75;59.68
57904;BME280;43720;47.462;19.030;2023-02-14T15:32:36;101983.72;;;8.71;59.84
57904;BME280;43720;47.462;19.030;2023-02-14T15:35:39;101989.09;;;8.56;60.34
57904;BME280;43720;47.462;19.030;2023-02-14T15:38:44;101988.41;;;8.61;59.59
57904;BME280;43720;47.462;19.030;2023-02-14T15:41:46;101987.28;;;8.55;59.43
57904;BME280;43720;47.462;19.030;2023-02-14T15:44:49;101985.87;;;8.44;60.29
57904;BME280;43720;47.462;19.030;2023-02-14T15:47:53;101991.31;;;8.49;60.35
57904;BME280;43720;47.462;19.030;2023-02-14T15:50:57;102000.56;;;8.26;61.58
57904;BME280;43720;47.462;19.030;2023-02-14T15:54:04;101994.44;;;8.07;61.79
57904;BME280;43720;47.462;19.030;2023-02-14T15:57:19;101988.16;;;8.04;61.93
57904;BME280;43720;47.462;19.030;2023-02-14T16:00:24;101996.03;;;7.88;62.61
57904;BME280;43720;47.462;19.030;2023-02-14T16:03:31;101992.44;;;7.85;62.69
57904;BME280;43720;47.462;19.030;2023-02-14T16:06:39;101985.16;;;7.78;62.55
57904;BME280;43720;47.462;19.030;2023-02-14T16:09:45;102002.47;;;7.62;62.85
57904;BME280;43720;47.462;19.030;2023-02-14T16:13:01;102004.03;;;7.58;63.40
57904;BME280;43720;47.462;19.030;2023-02-14T16:16:06;102002.66;;;7.65;62.96
57904;BME280;43720;47.462;19.030;2023-02-14T16:19:29;102010.22;;;7.60;63.00
57904;BME280;43720;47.462;19.030;2023-02-14T16:22:32;102003.53;;;7.65;62.88
57904;BME280;43720;47.462;19.030;2023-02-14T16:25:39;102010.13;;;7.58;62.79
57904;BME280;43720;47.462;19.030;2023-02-14T16:28:42;102013.78;;;7.46;63.46
57904;BME280;43720;47.462;19.030;2023-02-14T16:35:15;102023.59;;;7.19;64.66
57904;BME280;43720;47.462;19.030;2023-02-14T16:38:20;102031.69;;;7.08;65.59
57904;BME280;43720;47.462;19.030;2023-02-14T16:41:27;102032.28;;;7.03;66.30
57904;BME280;43720;47.462;19.030;2023-02-14T16:44:30;102035.78;;;6.89;66.90
57904;BME280;43720;47.462;19.030;2023-02-14T16:47:32;102031.66;;;6.92;66.34
